Česky Dansk Deutsch English Español Suomi Français Magyar Italiano Nederlands norsk Polski Português svenska Türkçe

 

Het Weer

Tikal (Guatemala)

03:00, 8 augustus 2016 (GMT)

NWNNE
WE
SWSSE
Home            
Tikal Flores Coban Belize / Phillip Goldston Intl. Airport Puerto Barrios Zacapa Chetumal, Q. Roo Huehuetenango La Mesa San Pedro Sula Santa Rosa De Copan Guatemala Aeropuertola Aurora Ciudad Del Carmen Tela Quezaltenango Santa Ana / El Palmar Retalhuleu Campeche, Camp. Villahermosa La Esperanza La Ceiba Airport San Jose Tuxtla Gutierrez, Chis. Yoro

Om een weerknop op uw website of weblog te plaatsen, copieer onderstaande code en plak die in uw pagina. In het eerste vakje staat HTML-code, in het tweede vakje UBB-code.


Add to Google

Details

Visibility:Greater than 10000 m, 10 km, 32800 ft, 6.2 miles
Clouds:CAVOC
Aufgelockert bewölkt at 9000 ft, 2743 m
Temperature:23°C, 73°F
Gefühlte Temperatur:20°C, 68°F
Dew-point:23°C, 73°F
Atmospheric pressure:1014 hPa, 760.5 mmHg, 29.94 inHg, 1.001 atm
Relative humidity:100.0 %
METAR:MGTK 080300Z 00000KT CAVOK 23/23 Q1014 A2994 SCT090

Snelkoppelingen

Actuele weersinformatie van de hele wereld. Voeg locaties toe met het plus (+) symbool. Deze snelkoppelingen kunnen worden toegevoegd aan Google.

Lid van de Technetium groep

website free tracking
StatCounter NetStat W3C Validator

13-08-2022 12:00:33
astro.technetium.be money.technetium.be phote.technetium.be tafeltennistafel.technetium.be www.ligfiets.net